Time;durP1;ratioP1;P1;durP2;ratioP2;P2;SDS_P1;SDS_P2;PMS_P1;PMS_P2;Temp;Humidity;BMP_temperature;BMP_pressure;BME280_temperature;BME280_humidity;BME280_pressure;Samples;Min_cycle;Max_cycle;Signal;HPM_P1;HPM_P2
2022/04/16 00:00:55;;;;;;;;;;;7.00;99.90;;;;;;5039216;28;20416;-88
2022/04/16 00:03:24;;;;;;;;;;;7.00;99.90;;;;;;5053490;28;19944;-87
2022/04/16 00:05:54;;;;;;;;;;;6.90;99.90;;;;;;5034399;28;20099;-87
2022/04/16 00:08:20;;;;;;;;;;;6.90;99.90;;;;;;5036735;28;20423;-87
2022/04/16 00:10:45;;;;;;;;;;;6.90;99.90;;;;;;5049142;28;19920;-87
2022/04/16 00:13:11;;;;;;;;;;;6.90;99.90;;;;;;5047489;28;19920;-87
2022/04/16 00:15:38;;;;;;;;;;;6.90;99.90;;;;;;5029015;28;19927;-87
2022/04/16 00:18:03;;;;;;;;;;;6.90;99.90;;;;;;5047592;28;20284;-87
2022/04/16 00:20:29;;;;;;;;;;;6.80;99.90;;;;;;5056445;28;19921;-87
2022/04/16 00:22:55;;;;;;;;;;;6.80;99.90;;;;;;5047793;28;20344;-87
2022/04/16 00:25:21;;;;;;;;;;;6.80;99.90;;;;;;5049773;28;19921;-87
2022/04/16 00:27:47;;;;;;;;;;;6.80;99.90;;;;;;5034334;28;19929;-87
2022/04/16 00:30:12;;;;;;;;;;;6.80;99.90;;;;;;5035700;28;20347;-87
2022/04/16 00:32:40;;;;;;;;;;;6.70;99.90;;;;;;5075977;28;20373;-87
2022/04/16 00:35:07;;;;;;;;;;;6.70;99.90;;;;;;5022474;28;19924;-87
2022/04/16 00:37:33;;;;;;;;;;;6.70;99.90;;;;;;5044019;28;20344;-87
2022/04/16 00:39:59;;;;;;;;;;;6.70;99.90;;;;;;5044036;28;19925;-87
2022/04/16 00:42:24;;;;;;;;;;;6.60;99.90;;;;;;5036301;28;19952;-87
2022/04/16 00:44:50;;;;;;;;;;;6.60;99.90;;;;;;5032903;28;20218;-87
2022/04/16 00:47:15;;;;;;;;;;;6.60;99.90;;;;;;5052774;28;19917;-87
2022/04/16 00:49:43;;;;;;;;;;;6.60;99.90;;;;;;5045539;28;20348;-87
2022/04/16 00:52:08;;;;;;;;;;;6.60;99.90;;;;;;5034563;28;19956;-87
2022/04/16 00:54:34;;;;;;;;;;;6.60;99.90;;;;;;5064741;28;20019;-87
2022/04/16 00:56:59;;;;;;;;;;;6.60;99.90;;;;;;5049564;28;19912;-87
2022/04/16 00:59:25;;;;;;;;;;;6.60;99.90;;;;;;5047881;28;20364;-87
2022/04/16 01:01:51;;;;;;;;;;;6.60;99.90;;;;;;5039969;28;20296;-86
2022/04/16 01:04:16;;;;;;;;;;;6.50;99.90;;;;;;5075075;28;19917;-87
2022/04/16 01:06:48;;;;;;;;;;;6.50;99.90;;;;;;5015990;28;19992;-87
2022/04/16 01:09:14;;;;;;;;;;;6.50;99.90;;;;;;5020233;28;19920;-86
2022/04/16 01:11:39;;;;;;;;;;;6.50;99.90;;;;;;5038501;28;19921;-87
2022/04/16 01:14:05;;;;;;;;;;;6.50;99.90;;;;;;5045824;28;20362;-87
2022/04/16 01:16:31;;;;;;;;;;;6.50;99.90;;;;;;5074714;28;19972;-87
2022/04/16 01:18:57;;;;;;;;;;;6.40;99.90;;;;;;5071324;28;19959;-86
2022/04/16 01:21:23;;;;;;;;;;;6.40;99.90;;;;;;5041656;28;20404;-86
2022/04/16 01:23:49;;;;;;;;;;;6.40;99.90;;;;;;5072460;28;20019;-87
2022/04/16 01:26:14;;;;;;;;;;;6.40;99.90;;;;;;5054524;28;19975;-87
2022/04/16 01:28:43;;;;;;;;;;;6.40;99.90;;;;;;5027246;28;20425;-87
2022/04/16 01:31:09;;;;;;;;;;;6.30;99.90;;;;;;5035377;28;19979;-86
2022/04/16 01:33:34;;;;;;;;;;;6.20;99.90;;;;;;5047790;28;19916;-87
2022/04/16 01:36:00;;;;;;;;;;;6.20;99.90;;;;;;5041048;28;19916;-87
2022/04/16 01:38:26;;;;;;;;;;;6.10;99.90;;;;;;5056788;28;19921;-87
2022/04/16 01:40:55;;;;;;;;;;;6.10;99.90;;;;;;5036385;28;19928;-87
2022/04/16 01:43:20;;;;;;;;;;;6.10;99.90;;;;;;5079063;28;19951;-87
2022/04/16 01:45:48;;;;;;;;;;;6.00;99.90;;;;;;5061686;28;19955;-87
2022/04/16 01:48:13;;;;;;;;;;;6.00;99.90;;;;;;5029589;28;19929;-87
2022/04/16 01:50:39;;;;;;;;;;;5.90;99.90;;;;;;5082567;28;20007;-87
2022/04/16 01:53:05;;;;;;;;;;;5.90;99.90;;;;;;5053566;28;19913;-87
2022/04/16 01:55:30;;;;;;;;;;;6.00;99.90;;;;;;5061915;28;19979;-87
2022/04/16 01:57:56;;;;;;;;;;;6.10;99.90;;;;;;5048629;28;19920;-88
2022/04/16 02:00:23;;;;;;;;;;;6.10;99.90;;;;;;5067750;28;19974;-87
2022/04/16 02:02:48;;;;;;;;;;;6.10;99.90;;;;;;5035464;28;19928;-87
2022/04/16 02:05:14;;;;;;;;;;;6.20;99.90;;;;;;5063620;28;19913;-87
2022/04/16 02:07:39;;;;;;;;;;;6.20;99.90;;;;;;5048915;28;19921;-87
2022/04/16 02:10:05;;;;;;;;;;;6.20;99.90;;;;;;5075520;28;19936;-87
2022/04/16 02:12:31;;;;;;;;;;;6.20;99.90;;;;;;5072966;28;20267;-87
2022/04/16 02:14:56;;;;;;;;;;;6.20;99.90;;;;;;5049162;28;19923;-87
2022/04/16 02:17:23;;;;;;;;;;;6.20;99.90;;;;;;5022466;28;19917;-87
2022/04/16 02:19:48;;;;;;;;;;;6.20;99.90;;;;;;5050313;28;19921;-88
2022/04/16 02:22:14;;;;;;;;;;;6.10;99.90;;;;;;5042533;28;19921;-87
2022/04/16 02:24:40;;;;;;;;;;;6.10;99.90;;;;;;5064456;28;19920;-87
2022/04/16 02:27:05;;;;;;;;;;;6.10;99.90;;;;;;5060451;28;19924;-87
2022/04/16 02:29:31;;;;;;;;;;;6.10;99.90;;;;;;5042643;28;19925;-87
2022/04/16 02:31:57;;;;;;;;;;;6.10;99.90;;;;;;5043529;28;19917;-87
2022/04/16 02:34:22;;;;;;;;;;;6.00;99.90;;;;;;5082490;28;19913;-87
2022/04/16 02:36:48;;;;;;;;;;;6.00;99.90;;;;;;5040230;28;19921;-87
2022/04/16 02:39:14;;;;;;;;;;;5.90;99.90;;;;;;5034602;28;19917;-87
2022/04/16 02:41:40;;;;;;;;;;;5.90;99.90;;;;;;5024537;28;20370;-87
2022/04/16 02:47:04;;;;;;;;;;;5.90;99.90;;;;;;5045662;28;19923;-87
2022/04/16 02:47:08;;;;;;;;;;;5.90;99.90;;;;;;5037217;28;19924;-87
2022/04/16 02:49:34;;;;;;;;;;;5.80;99.90;;;;;;5077316;28;19971;-87
2022/04/16 02:52:00;;;;;;;;;;;5.80;99.90;;;;;;5068594;28;20305;-87
2022/04/16 02:54:25;;;;;;;;;;;5.80;99.90;;;;;;5031558;28;19919;-87
2022/04/16 02:56:51;;;;;;;;;;;5.80;99.90;;;;;;5042200;28;19923;-87
2022/04/16 02:59:16;;;;;;;;;;;5.80;99.90;;;;;;5058462;28;19982;-87
2022/04/16 03:01:42;;;;;;;;;;;5.80;99.90;;;;;;5029089;28;20022;-86
2022/04/16 03:04:07;;;;;;;;;;;5.80;99.90;;;;;;5019468;28;19917;-87
2022/04/16 03:06:33;;;;;;;;;;;5.80;99.90;;;;;;5049538;28;20300;-87
2022/04/16 03:08:58;;;;;;;;;;;5.80;99.90;;;;;;5022176;28;19921;-87
2022/04/16 03:11:24;;;;;;;;;;;5.70;99.90;;;;;;5026474;28;19916;-87
2022/04/16 03:13:49;;;;;;;;;;;5.70;99.90;;;;;;5059026;28;19971;-87
2022/04/16 03:18:59;;;;;;;;;;;5.60;99.90;;;;;;5038326;28;20263;-87
2022/04/16 03:21:24;;;;;;;;;;;5.50;99.90;;;;;;5034090;28;19913;-86
2022/04/16 03:23:50;;;;;;;;;;;5.50;99.90;;;;;;5015478;28;19944;-87
2022/04/16 03:26:15;;;;;;;;;;;5.50;99.90;;;;;;5065356;28;20306;-87
2022/04/16 03:28:41;;;;;;;;;;;5.50;99.90;;;;;;5036321;28;19921;-87
2022/04/16 03:31:07;;;;;;;;;;;5.50;99.90;;;;;;5055855;28;19916;-87
2022/04/16 03:33:32;;;;;;;;;;;5.50;99.90;;;;;;5054083;28;19921;-87
2022/04/16 03:35:58;;;;;;;;;;;5.50;99.90;;;;;;5036641;28;19913;-87
2022/04/16 03:38:24;;;;;;;;;;;5.60;99.90;;;;;;5021939;28;20337;-87
2022/04/16 03:40:50;;;;;;;;;;;5.70;99.90;;;;;;5044384;28;20191;-87
2022/04/16 03:43:18;;;;;;;;;;;5.70;99.90;;;;;;5039886;28;19913;-87
2022/04/16 03:45:43;;;;;;;;;;;5.80;99.90;;;;;;5043895;28;19940;-87
2022/04/16 03:48:09;;;;;;;;;;;5.90;99.90;;;;;;5064608;28;20426;-87
2022/04/16 03:50:35;;;;;;;;;;;5.90;99.90;;;;;;5055093;28;19924;-86
2022/04/16 03:53:01;;;;;;;;;;;6.00;99.90;;;;;;5039993;28;19967;-86
2022/04/16 04:00:56;;;;;;;;;;;6.00;99.90;;;;;;5050299;28;19967;-87
2022/04/16 04:03:22;;;;;;;;;;;6.00;99.90;;;;;;5082407;28;19917;-87
2022/04/16 04:05:53;;;;;;;;;;;6.00;99.90;;;;;;5021690;28;19924;-86
2022/04/16 04:08:19;;;;;;;;;;;6.00;99.90;;;;;;5014677;28;19963;-87
2022/04/16 04:10:46;;;;;;;;;;;6.00;99.90;;;;;;5046203;28;19970;-87
2022/04/16 04:13:11;;;;;;;;;;;6.10;99.90;;;;;;5035260;28;19919;-86
2022/04/16 04:15:37;;;;;;;;;;;6.10;99.90;;;;;;5042793;28;20011;-87
2022/04/16 04:18:03;;;;;;;;;;;6.10;99.90;;;;;;5025041;28;19924;-86
2022/04/16 04:20:29;;;;;;;;;;;6.10;99.90;;;;;;5034259;28;19928;-87
2022/04/16 04:22:55;;;;;;;;;;;6.20;99.90;;;;;;5044639;28;19912;-87
2022/04/16 04:25:21;;;;;;;;;;;6.20;99.90;;;;;;5040873;28;19917;-86
2022/04/16 04:27:46;;;;;;;;;;;6.30;99.90;;;;;;5048132;28;19925;-87
2022/04/16 04:30:12;;;;;;;;;;;6.30;99.90;;;;;;5037832;28;20369;-87
2022/04/16 04:32:38;;;;;;;;;;;6.40;99.90;;;;;;5062103;28;19928;-87
2022/04/16 04:35:04;;;;;;;;;;;6.50;99.90;;;;;;5073601;28;20328;-86
2022/04/16 04:37:30;;;;;;;;;;;6.50;99.90;;;;;;5082128;28;19920;-86
2022/04/16 04:39:55;;;;;;;;;;;6.60;99.90;;;;;;5061078;28;19921;-87
2022/04/16 04:42:24;;;;;;;;;;;6.60;99.90;;;;;;5057966;28;19929;-87
2022/04/16 04:44:50;;;;;;;;;;;6.60;99.90;;;;;;5055816;28;19913;-87
2022/04/16 04:47:16;;;;;;;;;;;6.70;99.90;;;;;;5032647;28;19935;-87
2022/04/16 04:49:41;;;;;;;;;;;6.70;99.90;;;;;;5080714;28;20559;-87
2022/04/16 04:52:07;;;;;;;;;;;6.70;99.90;;;;;;5057520;28;20361;-87
2022/04/16 04:54:32;;;;;;;;;;;6.80;99.90;;;;;;5040245;28;19923;-87
2022/04/16 04:56:58;;;;;;;;;;;6.80;99.90;;;;;;5052267;28;20000;-87
2022/04/16 04:59:23;;;;;;;;;;;6.90;99.90;;;;;;5058659;23;19932;-85
2022/04/16 05:01:49;;;;;;;;;;;6.80;99.90;;;;;;5072531;28;20418;-85
2022/04/16 05:04:14;;;;;;;;;;;6.90;99.90;;;;;;5067929;28;19924;-84
2022/04/16 05:06:40;;;;;;;;;;;6.90;99.90;;;;;;5061185;28;19966;-84
2022/04/16 05:09:05;;;;;;;;;;;6.90;99.90;;;;;;5051098;28;19929;-85
2022/04/16 05:11:31;;;;;;;;;;;6.90;99.90;;;;;;5056962;28;19923;-85
2022/04/16 05:13:56;;;;;;;;;;;6.90;99.90;;;;;;5050272;28;20381;-85
2022/04/16 05:16:22;;;;;;;;;;;7.00;99.90;;;;;;5077193;28;20438;-84
2022/04/16 05:18:47;;;;;;;;;;;7.00;99.90;;;;;;5084668;28;19924;-84
2022/04/16 05:21:13;;;;;;;;;;;7.10;99.90;;;;;;5093528;28;20005;-84
2022/04/16 05:23:39;;;;;;;;;;;7.10;99.90;;;;;;5061275;28;19921;-85
2022/04/16 05:26:05;;;;;;;;;;;7.20;99.90;;;;;;5068120;28;19948;-85
2022/04/16 05:28:31;;;;;;;;;;;7.20;99.90;;;;;;5070731;28;20276;-84
2022/04/16 05:30:58;;;;;;;;;;;7.20;99.90;;;;;;5053389;28;19917;-84
2022/04/16 05:36:08;;;;;;;;;;;7.30;99.90;;;;;;5075586;28;20463;-85
2022/04/16 05:38:34;;;;;;;;;;;7.30;99.90;;;;;;5062752;28;19916;-84
2022/04/16 05:40:59;;;;;;;;;;;7.30;99.90;;;;;;5104848;28;19913;-84
2022/04/16 05:43:25;;;;;;;;;;;7.40;99.90;;;;;;5047209;28;19923;-84
2022/04/16 05:45:50;;;;;;;;;;;7.50;99.90;;;;;;5049479;28;19920;-84
2022/04/16 05:48:16;;;;;;;;;;;7.60;99.90;;;;;;5103605;28;19920;-84
2022/04/16 05:50:42;;;;;;;;;;;7.70;99.90;;;;;;5080315;28;19956;-83
2022/04/16 05:53:09;;;;;;;;;;;7.70;99.90;;;;;;5050322;28;20361;-84
2022/04/16 05:55:35;;;;;;;;;;;7.70;99.90;;;;;;5041800;28;19956;-84
2022/04/16 05:58:01;;;;;;;;;;;7.70;99.90;;;;;;5068169;28;19970;-84
2022/04/16 06:00:27;;;;;;;;;;;7.70;99.90;;;;;;5103165;28;19924;-84
2022/04/16 06:02:53;;;;;;;;;;;7.60;99.90;;;;;;5059670;28;19927;-84
2022/04/16 06:05:18;;;;;;;;;;;7.70;99.90;;;;;;5080645;28;19931;-84
2022/04/16 06:07:44;;;;;;;;;;;7.70;99.90;;;;;;5110518;28;19912;-85
2022/04/16 06:10:10;;;;;;;;;;;7.80;99.90;;;;;;5082110;28;19917;-85
2022/04/16 06:12:36;;;;;;;;;;;7.80;99.90;;;;;;5074022;28;19924;-85
2022/04/16 06:15:01;;;;;;;;;;;7.90;99.90;;;;;;5071938;28;19923;-85
2022/04/16 06:17:27;;;;;;;;;;;8.00;99.90;;;;;;5051492;28;19924;-85
2022/04/16 06:19:52;;;;;;;;;;;8.20;99.90;;;;;;5075539;28;19925;-84
2022/04/16 06:22:18;;;;;;;;;;;8.40;99.90;;;;;;5075961;28;19917;-85
2022/04/16 06:24:43;;;;;;;;;;;8.40;99.90;;;;;;5068594;28;20431;-85
2022/04/16 06:27:09;;;;;;;;;;;8.50;99.90;;;;;;5067654;28;19926;-84
2022/04/16 06:29:35;;;;;;;;;;;8.50;99.90;;;;;;5067515;28;19924;-84
2022/04/16 06:32:00;;;;;;;;;;;8.40;99.90;;;;;;5073833;28;19920;-85
2022/04/16 06:34:27;;;;;;;;;;;8.40;99.90;;;;;;5066271;28;19966;-85
2022/04/16 06:36:52;;;;;;;;;;;8.50;99.90;;;;;;5093165;28;19965;-85
2022/04/16 06:39:18;;;;;;;;;;;8.50;99.90;;;;;;5083751;28;20011;-85
2022/04/16 06:41:43;;;;;;;;;;;8.60;99.90;;;;;;5071084;28;19913;-84
2022/04/16 06:44:09;;;;;;;;;;;8.70;99.90;;;;;;5106066;28;19921;-84
2022/04/16 06:46:34;;;;;;;;;;;8.90;99.90;;;;;;5081233;28;19923;-85
2022/04/16 06:49:00;;;;;;;;;;;8.90;99.90;;;;;;5066198;28;19924;-84
2022/04/16 06:51:25;;;;;;;;;;;9.00;99.90;;;;;;5043101;28;19939;-85
2022/04/16 06:53:51;;;;;;;;;;;9.20;99.90;;;;;;5087184;28;20392;-84
2022/04/16 06:56:16;;;;;;;;;;;9.20;99.90;;;;;;5058274;28;20238;-84
2022/04/16 06:58:42;;;;;;;;;;;9.30;99.90;;;;;;5089859;28;20441;-84
2022/04/16 07:01:07;;;;;;;;;;;9.50;99.90;;;;;;5071669;28;19928;-84
2022/04/16 07:03:33;;;;;;;;;;;9.60;99.90;;;;;;5068572;28;19913;-85
2022/04/16 07:05:58;;;;;;;;;;;9.80;99.90;;;;;;5055427;28;19956;-84
2022/04/16 07:08:25;;;;;;;;;;;9.70;99.90;;;;;;5070697;28;20400;-84
2022/04/16 07:10:50;;;;;;;;;;;9.80;99.90;;;;;;5083680;28;20307;-84
2022/04/16 07:13:16;;;;;;;;;;;9.80;99.90;;;;;;5058174;28;19923;-82
2022/04/16 07:15:41;;;;;;;;;;;9.90;99.90;;;;;;5056935;28;19942;-83
2022/04/16 07:18:07;;;;;;;;;;;10.00;99.90;;;;;;5064021;28;20012;-83
2022/04/16 07:20:33;;;;;;;;;;;10.00;99.90;;;;;;5071891;28;19924;-83
2022/04/16 07:22:58;;;;;;;;;;;10.00;99.90;;;;;;5103638;28;19913;-82
2022/04/16 07:25:24;;;;;;;;;;;10.00;99.90;;;;;;5094079;28;20003;-82
2022/04/16 07:27:49;;;;;;;;;;;9.90;99.90;;;;;;5083707;28;19924;-83
2022/04/16 07:30:15;;;;;;;;;;;10.10;99.90;;;;;;5078315;28;19925;-83
2022/04/16 07:32:40;;;;;;;;;;;10.20;99.90;;;;;;5058420;28;19931;-83
2022/04/16 07:35:06;;;;;;;;;;;10.20;99.90;;;;;;5064479;28;19920;-83
2022/04/16 07:37:32;;;;;;;;;;;10.30;99.90;;;;;;5063032;28;20191;-82
2022/04/16 07:39:57;;;;;;;;;;;10.30;99.90;;;;;;5072516;28;19927;-82
2022/04/16 07:42:30;;;;;;;;;;;10.30;99.90;;;;;;5098110;28;19917;-82
2022/04/16 07:44:55;;;;;;;;;;;10.40;99.90;;;;;;5062748;28;20296;-82
2022/04/16 07:47:20;;;;;;;;;;;10.40;99.90;;;;;;5070313;28;19921;-82
2022/04/16 07:49:46;;;;;;;;;;;10.40;99.90;;;;;;5058090;28;19946;-83
2022/04/16 07:52:11;;;;;;;;;;;10.50;99.90;;;;;;5052772;28;19917;-82
2022/04/16 07:54:37;;;;;;;;;;;10.70;99.90;;;;;;5054015;28;19920;-82
2022/04/16 07:57:04;;;;;;;;;;;10.90;99.90;;;;;;5063406;28;20373;-83
2022/04/16 07:59:30;;;;;;;;;;;11.00;99.90;;;;;;5063848;28;19916;-82
2022/04/16 08:01:55;;;;;;;;;;;11.10;99.90;;;;;;5065306;28;19927;-83
2022/04/16 08:04:20;;;;;;;;;;;11.20;99.90;;;;;;5040114;28;19905;-83
2022/04/16 08:06:46;;;;;;;;;;;11.20;99.90;;;;;;5063468;28;19924;-85
2022/04/16 08:09:11;;;;;;;;;;;11.30;99.90;;;;;;5049579;28;20401;-82
2022/04/16 08:11:37;;;;;;;;;;;11.40;99.90;;;;;;5056315;28;20021;-82
2022/04/16 08:14:04;;;;;;;;;;;11.50;99.90;;;;;;5048767;28;19916;-82
2022/04/16 08:16:29;;;;;;;;;;;11.80;99.90;;;;;;5073601;28;19917;-83
2022/04/16 08:18:55;;;;;;;;;;;12.10;99.90;;;;;;5054732;28;19923;-83
2022/04/16 08:21:20;;;;;;;;;;;12.40;99.90;;;;;;5092927;28;19923;-82
2022/04/16 08:23:56;;;;;;;;;;;12.50;99.90;;;;;;5061941;28;19922;-82
2022/04/16 08:26:22;;;;;;;;;;;12.40;97.70;;;;;;5069460;28;20355;-82
2022/04/16 08:28:48;;;;;;;;;;;12.50;96.50;;;;;;5061415;28;20018;-82
2022/04/16 08:31:13;;;;;;;;;;;12.50;92.80;;;;;;5087024;28;20553;-82
2022/04/16 08:33:39;;;;;;;;;;;12.60;95.00;;;;;;5068976;28;20321;-82
2022/04/16 08:36:04;;;;;;;;;;;12.70;94.10;;;;;;5071596;28;20362;-83
2022/04/16 08:38:30;;;;;;;;;;;12.80;95.00;;;;;;5059235;28;20296;-84
2022/04/16 08:40:56;;;;;;;;;;;12.70;88.90;;;;;;5061736;28;20312;-83
2022/04/16 08:43:21;;;;;;;;;;;12.90;93.30;;;;;;5071452;28;19958;-82
2022/04/16 08:45:49;;;;;;;;;;;13.20;90.20;;;;;;5045238;28;19921;-82
2022/04/16 08:48:14;;;;;;;;;;;13.60;94.80;;;;;;5094246;28;20372;-82
2022/04/16 08:50:40;;;;;;;;;;;13.90;92.60;;;;;;5077610;28;19981;-83
2022/04/16 08:53:05;;;;;;;;;;;13.90;73.10;;;;;;5057643;28;20377;-83
2022/04/16 08:55:31;;;;;;;;;;;13.70;66.50;;;;;;5065414;28;19924;-82
2022/04/16 08:57:57;;;;;;;;;;;13.40;69.90;;;;;;5058231;28;19916;-82
2022/04/16 09:00:22;;;;;;;;;;;13.20;68.70;;;;;;5057778;28;19917;-82
2022/04/16 09:02:56;;;;;;;;;;;13.10;76.10;;;;;;5065557;28;19916;-82
2022/04/16 09:05:22;;;;;;;;;;;12.90;69.70;;;;;;5038892;28;20014;-82
2022/04/16 09:07:49;;;;;;;;;;;12.60;66.60;;;;;;5059597;28;19928;-82
2022/04/16 09:10:15;;;;;;;;;;;12.40;74.80;;;;;;5061051;28;20414;-82
2022/04/16 09:12:41;;;;;;;;;;;12.50;80.00;;;;;;5064319;28;20286;-82
2022/04/16 09:15:08;;;;;;;;;;;12.70;81.90;;;;;;5097804;28;19947;-82
2022/04/16 09:17:33;;;;;;;;;;;12.80;82.30;;;;;;5055205;28;19913;-82
2022/04/16 09:19:58;;;;;;;;;;;12.70;80.80;;;;;;5064572;28;20311;-83
2022/04/16 09:22:34;;;;;;;;;;;12.60;80.70;;;;;;5044678;28;19921;-82
2022/04/16 09:25:00;;;;;;;;;;;12.40;81.90;;;;;;5059292;28;19909;-82
2022/04/16 09:27:25;;;;;;;;;;;12.30;85.60;;;;;;5065163;28;19917;-82
2022/04/16 09:29:52;;;;;;;;;;;12.40;85.80;;;;;;5086518;28;20266;-83
2022/04/16 09:32:22;;;;;;;;;;;12.60;81.10;;;;;;5059599;28;19920;-82
2022/04/16 09:34:47;;;;;;;;;;;12.70;76.80;;;;;;5060198;28;19925;-82
2022/04/16 09:37:13;;;;;;;;;;;12.70;84.60;;;;;;5068638;28;19917;-82
2022/04/16 09:39:40;;;;;;;;;;;12.80;75.80;;;;;;5079893;28;20008;-83
2022/04/16 09:42:05;;;;;;;;;;;12.80;77.20;;;;;;5056780;28;19920;-83
2022/04/16 09:44:30;;;;;;;;;;;12.70;74.80;;;;;;5042570;28;19921;-84
2022/04/16 09:46:56;;;;;;;;;;;12.80;80.40;;;;;;5051863;28;19932;-83
2022/04/16 09:49:22;;;;;;;;;;;13.00;78.50;;;;;;5091924;28;20361;-82
2022/04/16 09:51:48;;;;;;;;;;;12.90;78.30;;;;;;5061791;28;19927;-83
2022/04/16 09:54:15;;;;;;;;;;;12.80;75.30;;;;;;5093740;28;19916;-83
2022/04/16 09:56:41;;;;;;;;;;;12.80;74.00;;;;;;5036008;28;19920;-83
2022/04/16 09:59:08;;;;;;;;;;;12.90;75.10;;;;;;5059349;28;19942;-83
2022/04/16 10:01:34;;;;;;;;;;;13.10;77.30;;;;;;5085704;28;19920;-82
2022/04/16 10:04:02;;;;;;;;;;;13.50;69.20;;;;;;5057811;28;19970;-83
2022/04/16 10:06:28;;;;;;;;;;;13.90;70.90;;;;;;5068307;28;19989;-82
2022/04/16 10:08:55;;;;;;;;;;;14.10;76.20;;;;;;5087943;28;19921;-82
2022/04/16 10:11:40;;;;;;;;;;;14.40;62.90;;;;;;5063977;28;19976;-82
2022/04/16 10:14:09;;;;;;;;;;;14.50;62.50;;;;;;5071753;28;19920;-82
2022/04/16 10:16:38;;;;;;;;;;;14.40;58.60;;;;;;5063655;28;20031;-83
2022/04/16 10:19:13;;;;;;;;;;;14.40;66.40;;;;;;5062243;28;19912;-82
2022/04/16 10:21:41;;;;;;;;;;;14.60;63.30;;;;;;5067644;28;19978;-82
2022/04/16 10:24:06;;;;;;;;;;;14.70;62.00;;;;;;5052200;28;19917;-84
2022/04/16 10:26:38;;;;;;;;;;;14.40;63.30;;;;;;5051685;28;20400;-82
2022/04/16 10:29:04;;;;;;;;;;;14.20;60.20;;;;;;5050814;28;19916;-83
2022/04/16 10:31:32;;;;;;;;;;;14.00;61.10;;;;;;5055112;28;19919;-82
2022/04/16 10:33:58;;;;;;;;;;;13.60;62.10;;;;;;5071319;28;19912;-82
2022/04/16 10:36:36;;;;;;;;;;;13.60;63.00;;;;;;5072756;28;19912;-82
2022/04/16 10:39:18;;;;;;;;;;;13.80;65.20;;;;;;5072101;28;19915;-83
2022/04/16 10:41:54;;;;;;;;;;;14.20;64.20;;;;;;5071361;28;20430;-82
2022/04/16 10:44:20;;;;;;;;;;;14.50;62.50;;;;;;5072525;28;20432;-82
2022/04/16 10:46:46;;;;;;;;;;;14.40;60.00;;;;;;5073060;28;20003;-82
2022/04/16 10:49:12;;;;;;;;;;;14.30;62.10;;;;;;5053899;28;19920;-83
2022/04/16 10:51:38;;;;;;;;;;;14.40;64.40;;;;;;5054213;28;20035;-83
2022/04/16 10:54:08;;;;;;;;;;;14.40;57.80;;;;;;5070996;28;20377;-82
2022/04/16 10:56:39;;;;;;;;;;;14.40;59.70;;;;;;5071037;28;20003;-82
2022/04/16 10:59:04;;;;;;;;;;;14.40;67.50;;;;;;5094801;22;20365;-86
2022/04/16 11:01:30;;;;;;;;;;;14.60;62.40;;;;;;5047389;28;19923;-86
2022/04/16 11:03:56;;;;;;;;;;;14.80;59.90;;;;;;5037581;28;20383;-86
2022/04/16 11:06:31;;;;;;;;;;;14.90;57.80;;;;;;5052574;28;19908;-87
2022/04/16 11:08:57;;;;;;;;;;;14.90;59.50;;;;;;5068527;28;19921;-86
2022/04/16 11:11:23;;;;;;;;;;;14.40;57.90;;;;;;5045092;28;19971;-86
2022/04/16 11:13:49;;;;;;;;;;;13.80;58.10;;;;;;5059401;28;19913;-86
2022/04/16 11:16:20;;;;;;;;;;;13.50;65.20;;;;;;5048530;28;19920;-86
2022/04/16 11:18:47;;;;;;;;;;;13.70;72.50;;;;;;5057535;28;19913;-87
2022/04/16 11:21:14;;;;;;;;;;;13.80;67.60;;;;;;5034643;28;19924;-87
2022/04/16 11:23:44;;;;;;;;;;;13.90;65.00;;;;;;5050778;28;19970;-86
2022/04/16 11:34:27;;;;;;;;;;;14.00;73.60;;;;;;5051986;28;19920;-86
2022/04/16 11:36:53;;;;;;;;;;;14.40;62.20;;;;;;5067220;28;19917;-86
2022/04/16 11:39:19;;;;;;;;;;;14.70;70.10;;;;;;5052511;28;19909;-85
2022/04/16 11:41:46;;;;;;;;;;;14.90;58.60;;;;;;5060358;28;20476;-87
2022/04/16 11:44:12;;;;;;;;;;;15.00;60.00;;;;;;5050558;28;19926;-87
2022/04/16 11:46:38;;;;;;;;;;;14.90;63.90;;;;;;5052222;28;20007;-87
2022/04/16 11:49:04;;;;;;;;;;;14.80;57.50;;;;;;5050591;28;19917;-87
2022/04/16 11:51:29;;;;;;;;;;;14.80;57.70;;;;;;5072116;28;19978;-87
2022/04/16 11:53:55;;;;;;;;;;;14.90;57.50;;;;;;5051856;28;20342;-86
2022/04/16 11:56:21;;;;;;;;;;;14.90;54.90;;;;;;5072643;28;20015;-86
2022/04/16 11:58:50;;;;;;;;;;;14.70;56.40;;;;;;5068381;28;19920;-87
2022/04/16 12:01:18;;;;;;;;;;;14.80;59.10;;;;;;5085625;28;19924;-89
2022/04/16 12:03:44;;;;;;;;;;;14.40;56.30;;;;;;5071289;28;19945;-87
2022/04/16 12:06:13;;;;;;;;;;;14.20;58.40;;;;;;5069964;28;19909;-87
2022/04/16 12:08:42;;;;;;;;;;;14.20;57.60;;;;;;5052304;28;19920;-87
2022/04/16 12:11:08;;;;;;;;;;;14.20;56.00;;;;;;5065802;28;20340;-87
2022/04/16 12:13:35;;;;;;;;;;;14.20;57.80;;;;;;5050103;28;19915;-87
2022/04/16 12:16:04;;;;;;;;;;;14.30;58.90;;;;;;5050086;28;20404;-87
2022/04/16 12:18:34;;;;;;;;;;;14.50;61.60;;;;;;5049460;28;19920;-86
2022/04/16 12:21:05;;;;;;;;;;;14.50;58.70;;;;;;5034082;28;19952;-86
2022/04/16 12:23:30;;;;;;;;;;;14.60;59.60;;;;;;5030098;28;19990;-87
2022/04/16 12:26:06;;;;;;;;;;;14.70;58.50;;;;;;5036851;28;20150;-88
2022/04/16 12:28:32;;;;;;;;;;;15.00;57.70;;;;;;5082887;28;19923;-87
2022/04/16 12:30:57;;;;;;;;;;;15.00;54.80;;;;;;5066867;28;19921;-86
2022/04/16 12:33:26;;;;;;;;;;;14.80;54.20;;;;;;5051976;28;19962;-88
2022/04/16 12:35:55;;;;;;;;;;;14.70;52.30;;;;;;5050612;28;19916;-87
2022/04/16 12:38:21;;;;;;;;;;;14.70;54.80;;;;;;5049360;28;19931;-87
2022/04/16 12:40:47;;;;;;;;;;;14.70;52.40;;;;;;5050453;28;19974;-87
2022/04/16 12:43:13;;;;;;;;;;;14.70;55.10;;;;;;5048483;28;20351;-88
2022/04/16 12:45:38;;;;;;;;;;;14.70;51.70;;;;;;5056319;28;19917;-87
2022/04/16 12:48:04;;;;;;;;;;;14.60;53.30;;;;;;5048743;28;19921;-88
2022/04/16 12:50:31;;;;;;;;;;;14.60;53.90;;;;;;5024815;28;19971;-89
2022/04/16 12:52:57;;;;;;;;;;;14.40;54.70;;;;;;5032663;28;20031;-88
2022/04/16 12:55:22;;;;;;;;;;;14.40;53.30;;;;;;5049233;28;20004;-88
2022/04/16 12:57:48;;;;;;;;;;;14.40;52.50;;;;;;5027598;28;20464;-87
2022/04/16 13:00:15;;;;;;;;;;;14.30;54.10;;;;;;5031866;28;19983;-88
2022/04/16 13:02:44;;;;;;;;;;;14.30;55.90;;;;;;5050407;28;20397;-91
2022/04/16 13:05:10;;;;;;;;;;;14.40;51.50;;;;;;5061611;28;19919;-86
2022/04/16 13:07:36;;;;;;;;;;;14.40;53.60;;;;;;5054823;28;19905;-85
2022/04/16 13:10:02;;;;;;;;;;;14.40;52.70;;;;;;5090671;28;19952;-87
2022/04/16 13:12:29;;;;;;;;;;;14.40;51.10;;;;;;5068782;28;19927;-88
2022/04/16 13:14:54;;;;;;;;;;;14.50;52.70;;;;;;5049907;28;19917;-89
2022/04/16 13:17:20;;;;;;;;;;;14.70;51.80;;;;;;5051252;28;19943;-88
2022/04/16 13:19:46;;;;;;;;;;;14.70;51.10;;;;;;5027740;28;20024;-87
2022/04/16 13:22:11;;;;;;;;;;;14.50;51.70;;;;;;5047494;28;19999;-86
2022/04/16 13:24:37;;;;;;;;;;;14.40;50.30;;;;;;5048761;28;20365;-86
2022/04/16 13:27:06;;;;;;;;;;;14.40;51.30;;;;;;5034982;28;20361;-86
2022/04/16 13:29:35;;;;;;;;;;;14.40;51.90;;;;;;5070694;28;19920;-86
2022/04/16 13:32:01;;;;;;;;;;;14.50;51.10;;;;;;5049040;28;19924;-86
2022/04/16 13:34:28;;;;;;;;;;;14.60;49.80;;;;;;5058987;28;20456;-87
2022/04/16 13:36:53;;;;;;;;;;;14.60;49.80;;;;;;5044102;28;19924;-86
2022/04/16 13:42:05;;;;;;;;;;;14.70;51.10;;;;;;5053525;28;20392;-86
2022/04/16 13:44:30;;;;;;;;;;;14.70;51.00;;;;;;5051820;28;19917;-87
2022/04/16 13:46:56;;;;;;;;;;;14.80;53.30;;;;;;5059529;28;20436;-86
2022/04/16 13:49:21;;;;;;;;;;;14.80;52.90;;;;;;5051541;28;20301;-87
2022/04/16 13:51:47;;;;;;;;;;;14.70;52.20;;;;;;5055269;28;19951;-86
2022/04/16 13:54:13;;;;;;;;;;;14.50;52.50;;;;;;5052915;28;19916;-87
2022/04/16 13:56:38;;;;;;;;;;;14.60;49.40;;;;;;5054173;28;19990;-87
2022/04/16 13:59:06;;;;;;;;;;;14.50;48.80;;;;;;5027115;28;20408;-88
2022/04/16 14:01:32;;;;;;;;;;;14.50;51.20;;;;;;5054005;28;19924;-87
2022/04/16 14:03:59;;;;;;;;;;;14.50;52.70;;;;;;5052022;28;19920;-86
2022/04/16 14:06:24;;;;;;;;;;;14.40;51.20;;;;;;5051366;28;19990;-87
2022/04/16 14:08:50;;;;;;;;;;;14.40;52.50;;;;;;5030038;28;19968;-87
2022/04/16 14:11:15;;;;;;;;;;;14.40;51.40;;;;;;5079555;28;19920;-86
2022/04/16 14:13:41;;;;;;;;;;;14.40;51.50;;;;;;5056959;28;19920;-86
2022/04/16 14:16:09;;;;;;;;;;;14.50;50.10;;;;;;5051898;28;20335;-87
2022/04/16 14:18:35;;;;;;;;;;;14.60;51.40;;;;;;5050951;28;19964;-87
2022/04/16 14:21:00;;;;;;;;;;;14.60;50.50;;;;;;5030727;28;19956;-87
2022/04/16 14:23:30;;;;;;;;;;;14.50;49.60;;;;;;5051087;28;20632;-86
2022/04/16 14:25:56;;;;;;;;;;;14.60;53.40;;;;;;5053177;28;20012;-86
2022/04/16 14:28:21;;;;;;;;;;;14.60;51.50;;;;;;5051963;28;19999;-86
2022/04/16 14:30:47;;;;;;;;;;;14.70;49.00;;;;;;5057644;28;20491;-86
2022/04/16 14:33:12;;;;;;;;;;;14.60;48.50;;;;;;5028278;28;19917;-87
2022/04/16 14:35:39;;;;;;;;;;;14.60;47.80;;;;;;5033517;28;20394;-87
2022/04/16 14:38:11;;;;;;;;;;;14.60;48.80;;;;;;5052516;28;19916;-86
2022/04/16 14:40:40;;;;;;;;;;;14.70;47.60;;;;;;5051051;28;19964;-87